Hauptseite
METAR-TAF:

METAR-TAF

Flughäfen :

Flughafen Portorož

Portorož, Slowenien

Breite: 45-31N, Länge: 013-34E, Höhe: 95 m

Beobachtung

Neuester Wetterbericht von vor 35 Minuten, um 12:30 UTC
Wind 2 kt aus unterschiedlichen Richtungen
Temperatur 11°C
Luftfeuchtigkeit 82%
Luftdruck 1013 hPa
Sichtweite 10 km oder mehr
Leicht bewölkt in der Höhe von 1500 ft
Durchbrochene Bewölkung in der Höhe von 3100 ft
Durchbrochene Bewölkung in der Höhe von 7000 ft

METAR: LJPZ 211230Z VRB02KT 9999 FEW015 BKN031 BKN070 11/08 Q1013

Zeit: 14:05 (13:05 UTC)

Prognose

Neuester Wetterbericht von vor 2 Stunden und 5 Minuten, um 11:00 UTC
Gültige Prognose vom 21 um 12 UTC bis 21 um 21 UTC
Wind 5 kt aus Ost/Nordost
Sichtweite 10 km oder mehr
Aufgelockert bewölkt in der Höhe von 4000 ft
Durchbrochene Bewölkung in der Höhe von 9000 ft

TAF: LJPZ 211100Z 2112/2121 07005KT 9999 SCT040 BKN090

Wetterbeobachtungen und Prognosen von mehr als 4000 Flughäfen (METAR und TAF Bericht).

Die verfügbaren Stationen werden durch gelbe und rote Markierungen auf der Karte dargestellt.

Führen Sie die Maus auf sie, um den Namen der Station zu sehen.

Darauf klicken, um die Beobachtung von Wetterbeobachtungen und Prognosen zu sehen.

Um die Karte zu ändern : klicken Sie auf den grünen Tasten mit einem schwarzen Kreuz Zum Vergrößern, auf den grünen Button mit einem Gedankenstrich zu verkleinern, oder auf die grünen Pfeile für benachbarte Karten.


METAR-TAF: